VPS weather

Destin-Ft Walton Beach Airport
Valparaiso, Florida, United States

Public forecast

Using degrees Fahrenheit for public forecast. Weather courtesy of forecast.io.

Current aviation weather report (METAR) for Destin-Ft Walton Beach Airport

Retrieved 2020/02/28 16:56 UTC (37 minutes ago):

KVPS 281656Z AUTO 29008G15KT 10SM CLR 14/M04 A3030 RMK AO2 SLP268 T01361041

Aviation forecast (TAF) for Destin-Ft Walton Beach Airport

Forecast is more than 6 hours old.

Retrieved 2020/02/28 10:06 UTC (7 hours ago):

TAF KVPS 281000Z 2810/2916 31006KT 9999 SKC QNH3025INS BECMG 2815/2816 27012G18KT 9999 SKC QNH3035INS BECMG 2820/2821 25015G20KT 9999 SKC QNH3025INS BECMG 2902/2903 30012KT 9999 SKC WS012/32029KT WND 32006KT AT 2909 QNH3027INS TX15/2820Z TN01/2811Z